NEW MELONES RESERVOIR (NML)

Elevation: 1135' · STANISLAUS R basin · Operator: US Bureau of Reclamation

Provisional data, subject to change.
Query executed Wednesday at 17:54:29   clock

Select a sensor type for a plot of data.
Note: Reservoir Flows are daily averages.

Earlier

Date RES ELE    STORAGE    RES CHG    TOC STO    ABV TOC    OUTFLOW    INFLOW    EVAP    FNF    RIV REL    PPT INC    SPILL    DIS PWR   
 FEET   AF   AF   AF   AF   CFS   CFS   CFS   CFS   CFS   INCHES   CFS   CFS  
03/18/2014 951.58 1067364 -826 1970000 -902636 591 226 51 376 581 0.00 0 10
03/19/2014 951.11 1063835 -3529 1970000 -906165 2184 451 46 575 140 0.00 0 2044
03/20/2014 950.81 1061589 -2246 1970000 -908411 1517 416 31 546 0 0.00 0 1517
03/21/2014 950.51 1059346 -2243 1976200 -- 1492 446 85 585 0 0.00 0 1492
03/22/2014 950.14 1056581 -2765 1982500 -925919 1744 401 51 539 0 0.00 0 1744
03/23/2014 949.81 1054120 -2461 1988800 -934680 1618 425 48 556 0 0.00 0 1618
03/24/2014 949.44 1051366 -2754 1995000 -943634 1756 421 53 -757 0 0.00 0 1756
03/25/2014 949.02 1048241 -3125 2001200 -952959 2087 570 58 2060 0 0.00 0 2087
03/26/2014 948.62 1045277 -2964 2007500 -962223 2085 617 26 818 0 0.22 0 2085
03/27/2014 948.31 1042980 -2297 2013800 -970820 1786 640 12 792 0 0.70 0 1786
03/28/2014 947.99 1040610 -2370 2020000 -979390 1552 376 19 491 0 0.00 0 1552
03/29/2014 947.83 1039430 -1180 2026200 -986770 1251 682 26 844 0 0.00 0 1251
03/30/2014 947.67 1038250 -1180 2032500 -994250 1057 653 191 826 0 0.97 0 1057
03/31/2014 947.45 1036628 -1622 2038800 -1002172 1395 620 43 -- 0 0.07 0 1395
04/01/2014 947.47 1036775 147 2045000 -1008225 720 823 29 950 0 0.40 0 720
04/02/2014 947.34 1035817 -958 2051200 -1015383 1228 774 29 904 0 0.40 0 1228
04/03/2014 947.06 1033752 -2065 2057500 -1023748 1504 496 33 607 0 0.40 0 1504
04/04/2014 946.99 1033236 -516 2063800 -1030564 827 605 38 734 0 0.00 0 827
04/05/2014 946.98 1033162 -74 2070000 -1036838 429 394 2 504 0 0.03 0 429
04/06/2014 946.80 1031840 -1322 2076200 -1044360 1156 535 45 692 0 0.00 0 1156
04/07/2014 946.55 1030005 -1835 2082500 -1052495 1604 719 40 988 0 0.00 0 1604
04/08/2014 946.57 1030152 147 2088800 -1058648 632 765 59 1160 1 0.00 0 631
04/09/2014 946.42 1029050 -1102 2095000 -1065950 1283 786 59 1210 0 0.00 0 1283
04/10/2014 946.26 1027875 -1175 2101200 -1073325 1367 825 50 1478 0 0.00 0 1367
04/11/2014 946.09 1026627 -1248 2107500 -1080873 1516 958 71 1557 0 0.00 0 1516
04/12/2014 945.78 1024358 -2269 2113800 -1089442 1553 452 43 1088 0 0.00 0 1553
04/13/2014 945.49 1022239 -2119 2120000 -1097761 1676 660 52 1343 0 0.00 0 1676
04/14/2014 944.57 1015529 -6710 2126200 -1110671 4139 805 49 1407 0 0.00 0 4139
04/15/2014 943.72 1009354 -6175 2132500 -1123146 3640 590 63 1251 0 0.00 0 3640
04/16/2014 -- -- -- -- -- -- -- -- -- -- -- -- --

Later | Latest

Warning! This data is preliminary and subject to revision.

Download Data Now Download Data Now | Show NML Map | Plot NML Data | 1 Month NML Data | Real-Time NML Data | NML Info